Baxter, Arkansas
Current Conditions -  °F | °C
As of 12:50 PM on Sunday 23 Nov 2014 (Local Time) from KLLQ Reporting Station
Light Rain Light Rain  
Wind Chill: 61°   Ceiling: 5000
Heat Index: 61°   Visibility: 10mi
Dew Point: 59°   Wind: 9mph
Humidity: 94%   Direction: 260°W
Pressure: 29.41"   Gusts: NA
Location:  33.4898°N, 91.4556°W
Report Text: KLLQ 231850Z AUTO 26008KT 10SM -RA SCT004 BKN050 OVC070 16/15 A2941 RMK AO2 P0010
Loading
Personal Weather Stations






























Interactive Weather Map New forecast layout! Learn more

10-Day Weather Forecast

Advertisements
Track Severe Weather on mobile